עמוד ראשי
METAR-TAF:

METAR-TAF

שדות תעופה :

כווית סיטי, כווית

קו רוחב: 29-13N, קו אורך: 047-59E, גובה: 55מטר

תצפית מזג אוויר נוכחית

הדו"ח נערך לפני 1 שעות ו 13דקות, בשעה 18:00 UTC
רוח 9קשר מכיוון צפון/צפון-מערב
טמפרטורת 41 צלסיוס
לחות 10%
לחץ 1000 hPa
ראות 10 קילומטר או יותר
ללא עננים שבסיסם נמוך מ 5000 רגל או קומולונימבוס

METAR: OKKK 131800Z 34009KT CAVOK 41/04 Q1000 NOSIG

זמן: 22:13 (19:13 UTC)

תחזית

הדו"ח נערך לפני 2 שעות ו 13דקות, בשעה 17:00 UTC
תחזית בתוקף מ 13 ב 18 UTC עד 14 ב 24 UTC
רוח 12קשר מכיוון צפון/צפון-מערב
ראות: 7000מטר
זמנית מ -
13 ב 21 UTC עד 14 ב 03 UTC
רוח 3קשר עם כיוונים משתנים

TAF: OKKK 131700Z 1318/1424 34012KT 7000 NSC TEMPO 1321/1403 VRB03KT

תצפיות ותחזיות מזג אוויר לגבי יותר מ- 4,000 שדות תעופה ברחבי העולם. דוחות METAR ו- TAF.

התחנות הזמינות מסומנות בנקודות צהובות ואדומות על גבי המפה.

העבר את העכבר לנקודה הצבעונית על מנת לראות את שם התחנה.

לאחר מכן, לחץ כדי לראות את תוכן ואת תחזיות מזג האוויר.

כדי לשנות את המפה: לחץ על הכפתורים הירוקים עם הפלוס השחור כדי להתקרב; על הכפתור הירוק עם המקף כדי להתרחק; או בחיצים הירוקים למפות סמוכות.


METAR-TAF: